createdAt,value
2019-04-11T00:01:53.444Z,6.75
2019-04-11T00:04:26.188Z,6.70
2019-04-11T00:06:58.145Z,6.65
2019-04-11T00:09:30.428Z,6.66
2019-04-11T00:12:02.273Z,6.69
2019-04-11T00:14:34.397Z,6.69
2019-04-11T00:17:06.118Z,6.67
2019-04-11T00:19:38.175Z,6.58
2019-04-11T00:22:11.024Z,6.59
2019-04-11T00:24:43.347Z,6.59
2019-04-11T00:27:15.082Z,6.61
2019-04-11T00:29:47.320Z,6.58
2019-04-11T00:32:19.232Z,6.52
2019-04-11T00:34:51.241Z,6.56
2019-04-11T00:37:23.247Z,6.47
2019-04-11T00:39:56.292Z,6.35
2019-04-11T00:42:30.421Z,6.35
2019-04-11T00:45:03.426Z,6.41
2019-04-11T00:47:38.155Z,6.36
2019-04-11T00:50:12.696Z,6.29
2019-04-11T00:52:45.635Z,6.23
2019-04-11T00:55:17.761Z,6.26
2019-04-11T00:57:50.637Z,6.20
2019-04-11T01:00:23.346Z,6.19
2019-04-11T01:02:55.892Z,6.13
2019-04-11T01:05:27.751Z,6.20
2019-04-11T01:07:59.740Z,6.20
2019-04-11T01:10:32.029Z,6.20
2019-04-11T01:13:04.983Z,6.04
2019-04-11T01:15:39.081Z,6.00
2019-04-11T01:18:11.904Z,5.92
2019-04-11T01:20:44.183Z,5.87
2019-04-11T01:23:16.205Z,5.92
2019-04-11T01:25:48.723Z,5.80
2019-04-11T01:28:20.954Z,5.85
2019-04-11T01:31:06.443Z,5.83
2019-04-11T01:33:38.375Z,5.76
2019-04-11T01:36:12.182Z,5.60
2019-04-11T01:38:48.401Z,5.58
2019-04-11T01:41:20.533Z,5.58
2019-04-11T01:44:00.993Z,5.66
2019-04-11T01:46:29.826Z,5.64
2019-04-11T01:49:17.537Z,5.55
2019-04-11T01:51:49.934Z,5.58
2019-04-11T01:54:21.848Z,5.63
2019-04-11T01:56:54.210Z,5.44
2019-04-11T01:59:27.243Z,5.40
2019-04-11T02:02:09.567Z,5.35
2019-04-11T02:04:46.059Z,5.32
2019-04-11T02:07:18.820Z,5.30
2019-04-11T02:09:50.704Z,5.28
2019-04-11T02:12:23.505Z,5.23
2019-04-11T02:14:55.581Z,5.22
2019-04-11T02:17:27.711Z,5.15
2019-04-11T02:20:00.626Z,5.11
2019-04-11T02:23:04.551Z,5.12
2019-04-11T02:25:52.533Z,5.01
2019-04-11T02:28:24.673Z,4.84
2019-04-11T02:30:57.531Z,4.83
2019-04-11T02:33:30.651Z,4.77
2019-04-11T02:36:04.601Z,4.73
2019-04-11T02:38:37.507Z,4.64
2019-04-11T02:41:12.465Z,4.65
2019-04-11T02:43:46.699Z,4.69
2019-04-11T02:46:28.337Z,4.66
2019-04-11T02:48:52.327Z,4.68
2019-04-11T02:51:26.849Z,4.65
2019-04-11T02:53:59.398Z,4.53
2019-04-11T02:56:33.438Z,4.45
2019-04-11T02:59:05.523Z,4.42
2019-04-11T03:01:39.849Z,4.40
2019-04-11T03:04:12.933Z,4.43
2019-04-11T03:06:45.773Z,4.49
2019-04-11T03:09:19.540Z,4.41
2019-04-11T03:11:51.611Z,4.38
2019-04-11T03:14:25.066Z,4.29
2019-04-11T03:17:08.419Z,4.26
2019-04-11T03:19:43.935Z,4.35
2019-04-11T03:22:05.833Z,4.34
2019-04-11T03:24:38.644Z,4.37
2019-04-11T03:27:11.960Z,4.33
2019-04-11T03:29:45.816Z,4.41
2019-04-11T03:33:02.225Z,4.38
2019-04-11T03:35:45.726Z,4.31
2019-04-11T03:37:54.039Z,4.37
2019-04-11T03:40:22.473Z,4.39
2019-04-11T03:42:46.259Z,4.39
2019-04-11T03:45:27.516Z,4.41
2019-04-11T03:47:57.666Z,4.41
2019-04-11T03:50:17.460Z,4.37
2019-04-11T03:52:49.546Z,4.37
2019-04-11T03:55:23.385Z,4.24
2019-04-11T03:57:56.774Z,4.23
2019-04-11T04:00:34.040Z,4.16
2019-04-11T04:03:04.605Z,4.19
2019-04-11T04:05:38.619Z,4.17
2019-04-11T04:08:10.886Z,4.15
2019-04-11T04:11:03.844Z,4.20
2019-04-11T04:13:39.111Z,4.19
2019-04-11T04:16:27.479Z,4.24
2019-04-11T04:19:20.298Z,4.29
2019-04-11T04:22:07.945Z,4.13
2019-04-11T04:24:41.322Z,4.05
2019-04-11T04:27:15.306Z,4.04
2019-04-11T04:29:51.258Z,4.08
2019-04-11T04:32:22.736Z,4.00
2019-04-11T04:34:56.322Z,3.98
2019-04-11T04:37:29.612Z,3.95
2019-04-11T04:40:19.419Z,3.91
2019-04-11T04:42:40.390Z,3.76
2019-04-11T04:45:10.121Z,3.68
2019-04-11T04:47:48.961Z,3.79
2019-04-11T04:50:18.190Z,3.85
2019-04-11T04:52:51.542Z,3.77
2019-04-11T04:55:25.817Z,3.71
2019-04-11T04:57:58.231Z,3.80
2019-04-11T05:00:32.161Z,3.78
2019-04-11T05:03:05.472Z,3.82
2019-04-11T05:05:38.265Z,3.82
2019-04-11T05:08:11.184Z,3.84
2019-04-11T05:10:44.965Z,3.83
2019-04-11T05:13:17.493Z,3.83
2019-04-11T05:16:02.865Z,3.78
2019-04-11T05:18:23.687Z,3.77
2019-04-11T05:20:56.978Z,3.84
2019-04-11T05:23:29.702Z,3.80
2019-04-11T05:26:01.689Z,3.74
2019-04-11T05:28:33.262Z,3.72
2019-04-11T05:31:06.178Z,3.71
2019-04-11T05:33:39.106Z,3.75
2019-04-11T05:36:10.845Z,3.79
2019-04-11T05:38:42.542Z,3.82
2019-04-11T05:41:15.289Z,3.80
2019-04-11T05:43:49.642Z,3.80
2019-04-11T05:46:31.064Z,3.82
2019-04-11T05:49:13.487Z,3.83
2019-04-11T05:51:58.150Z,3.79
2019-04-11T05:54:33.210Z,3.79
2019-04-11T05:57:07.054Z,3.79
2019-04-11T05:59:39.582Z,3.73
2019-04-11T06:02:21.503Z,3.70
2019-04-11T06:05:02.844Z,3.69
2019-04-11T06:07:57.258Z,3.70
2019-04-11T06:10:31.654Z,3.69
2019-04-11T06:13:16.411Z,3.66
2019-04-11T06:15:51.396Z,3.73
2019-04-11T06:18:44.729Z,3.49
2019-04-11T06:21:49.024Z,3.42
2019-04-11T06:24:45.805Z,3.46
2019-04-11T06:27:31.190Z,3.63
2019-04-11T06:30:17.914Z,3.67
2019-04-11T06:32:58.517Z,3.77
2019-04-11T06:35:42.079Z,3.80
2019-04-11T06:38:48.013Z,3.67
2019-04-11T06:41:54.830Z,3.72
2019-04-11T06:45:02.589Z,3.55
2019-04-11T06:47:53.512Z,3.62
2019-04-11T06:50:39.825Z,3.53
2019-04-11T06:53:13.389Z,3.60
2019-04-11T06:56:04.226Z,3.72
2019-04-11T06:58:39.828Z,3.69
2019-04-11T07:01:16.149Z,3.81
2019-04-11T07:03:51.629Z,3.73
2019-04-11T07:06:27.287Z,3.73
2019-04-11T07:09:27.166Z,3.61
2019-04-11T07:12:03.955Z,3.72
2019-04-11T07:14:50.146Z,3.88
2019-04-11T07:17:40.337Z,3.88
2019-04-11T07:20:37.862Z,3.85
2019-04-11T07:23:28.427Z,3.90
2019-04-11T07:26:31.442Z,3.97
2019-04-11T07:29:23.921Z,4.02
2019-04-11T07:32:16.158Z,3.88
2019-04-11T07:35:05.755Z,3.99
2019-04-11T07:37:44.877Z,3.99
2019-04-11T07:40:35.276Z,3.95
2019-04-11T07:43:19.054Z,3.76
2019-04-11T07:46:09.987Z,3.73
2019-04-11T07:48:42.680Z,3.86
2019-04-11T07:51:34.353Z,3.85
2019-04-11T07:54:13.739Z,3.85
2019-04-11T07:56:58.677Z,3.84
2019-04-11T08:00:04.411Z,3.73
2019-04-11T08:03:01.928Z,3.73
2019-04-11T08:05:56.617Z,3.72
2019-04-11T08:08:51.399Z,3.62
2019-04-11T08:11:48.231Z,3.73
2019-04-11T08:14:38.341Z,3.76
2019-04-11T08:17:36.850Z,3.76
2019-04-11T08:20:25.640Z,3.82
2019-04-11T08:23:08.226Z,3.80
2019-04-11T08:25:55.728Z,3.61
2019-04-11T08:28:28.850Z,3.71
2019-04-11T08:31:28.939Z,3.68
2019-04-11T08:34:04.959Z,3.62
2019-04-11T08:36:54.904Z,3.76
2019-04-11T08:39:35.309Z,3.76
2019-04-11T08:42:25.406Z,3.82
2019-04-11T08:44:58.523Z,3.75
2019-04-11T08:47:46.816Z,3.86
2019-04-11T08:50:16.403Z,3.84
2019-04-11T08:53:07.269Z,3.78
2019-04-11T08:55:56.230Z,3.54
2019-04-11T08:58:47.395Z,3.28
2019-04-11T09:01:20.382Z,3.30
2019-04-11T09:04:15.284Z,3.37
2019-04-11T09:06:47.394Z,3.28
2019-04-11T09:09:36.247Z,3.32
2019-04-11T09:12:11.993Z,3.50
2019-04-11T09:15:14.878Z,3.36
2019-04-11T09:17:58.918Z,3.48
2019-04-11T09:20:41.748Z,3.48
2019-04-11T09:23:15.813Z,3.47
2019-04-11T09:26:05.121Z,3.59
2019-04-11T09:28:42.106Z,3.63
2019-04-11T09:31:36.301Z,3.58
2019-04-11T09:34:25.934Z,3.61
2019-04-11T09:37:13.650Z,3.61
2019-04-11T09:40:05.804Z,3.57
2019-04-11T09:42:47.181Z,3.63
2019-04-11T09:45:37.531Z,3.50
2019-04-11T09:48:44.389Z,3.37
2019-04-11T09:51:54.091Z,3.46
2019-04-11T09:55:03.047Z,3.37
2019-04-11T09:57:37.648Z,3.50
2019-04-11T10:00:28.941Z,3.34
2019-04-11T10:03:04.408Z,3.33
2019-04-11T10:05:58.704Z,3.43
2019-04-11T10:08:37.478Z,3.38
2019-04-11T10:11:43.314Z,3.40
2019-04-11T10:14:19.729Z,3.55
2019-04-11T10:17:10.672Z,3.68
2019-04-11T10:19:48.703Z,3.54
2019-04-11T10:22:50.392Z,3.61
2019-04-11T10:25:35.176Z,3.66
2019-04-11T10:28:27.150Z,3.73
2019-04-11T10:31:08.524Z,3.84
2019-04-11T10:33:59.611Z,3.80
2019-04-11T10:36:51.505Z,4.02
2019-04-11T10:39:42.176Z,4.13
2019-04-11T10:42:15.590Z,4.25
2019-04-11T10:45:06.737Z,4.29
2019-04-11T10:47:40.816Z,4.39
2019-04-11T10:50:32.247Z,4.39
2019-04-11T10:53:05.326Z,4.48
2019-04-11T10:55:56.354Z,4.48
2019-04-11T10:58:51.129Z,4.51
2019-04-11T11:01:50.880Z,4.60
2019-04-11T11:04:27.492Z,4.59
2019-04-11T11:07:10.194Z,4.66
2019-04-11T11:09:52.947Z,4.79
2019-04-11T11:12:38.857Z,4.89
2019-04-11T11:15:17.713Z,4.97
2019-04-11T11:21:05.481Z,5.08
2019-04-11T11:23:54.396Z,5.22
2019-04-11T11:26:35.693Z,5.28
2019-04-11T11:29:26.513Z,5.31
2019-04-11T11:32:03.026Z,5.31
2019-04-11T11:34:52.331Z,5.40
2019-04-11T11:37:42.702Z,5.30
2019-04-11T11:40:52.096Z,5.32
2019-04-11T11:43:29.330Z,5.29
2019-04-11T11:46:25.564Z,5.31
2019-04-11T11:49:12.276Z,5.43
2019-04-11T11:52:08.984Z,5.47
2019-04-11T11:54:48.056Z,5.58
2019-04-11T11:57:44.910Z,5.71
2019-04-11T12:00:23.466Z,5.74
2019-04-11T12:03:02.389Z,5.78
2019-04-11T12:05:45.616Z,5.43
2019-04-11T12:08:45.257Z,5.58
2019-04-11T12:11:15.719Z,5.57
2019-04-11T12:14:12.039Z,5.65
2019-04-11T12:17:01.349Z,5.61
2019-04-11T12:19:47.319Z,5.61
2019-04-11T12:22:10.820Z,5.72
2019-04-11T12:24:45.269Z,5.74
2019-04-11T12:27:41.563Z,5.59
2019-04-11T12:30:26.602Z,5.66
2019-04-11T12:33:17.319Z,5.75
2019-04-11T12:36:09.922Z,5.72
2019-04-11T12:39:00.780Z,5.77
2019-04-11T12:41:42.774Z,5.85
2019-04-11T12:44:51.952Z,5.72
2019-04-11T12:47:44.965Z,5.82
2019-04-11T12:50:39.831Z,5.78
2019-04-11T12:53:16.806Z,5.96
2019-04-11T12:56:06.100Z,5.94
2019-04-11T12:58:43.634Z,6.08
2019-04-11T13:01:43.200Z,6.03
2019-04-11T13:04:37.463Z,6.04
2019-04-11T13:07:28.081Z,5.88
2019-04-11T13:10:06.569Z,5.73
2019-04-11T13:12:45.459Z,5.60
2019-04-11T13:15:37.088Z,5.72
2019-04-11T13:18:26.723Z,5.81
2019-04-11T13:21:11.780Z,5.77
2019-04-11T13:24:11.623Z,5.96
2019-04-11T13:27:18.664Z,5.94
2019-04-11T13:30:14.160Z,5.80
2019-04-11T13:33:08.977Z,5.71
2019-04-11T13:36:05.754Z,5.68
2019-04-11T13:38:51.679Z,5.78
2019-04-11T13:41:41.279Z,5.67
2019-04-11T13:44:21.829Z,5.70
2019-04-11T13:47:12.345Z,5.59
2019-04-11T13:50:04.204Z,5.50
2019-04-11T13:53:04.623Z,5.61
2019-04-11T13:55:39.094Z,5.58
2019-04-11T13:58:38.807Z,5.63
2019-04-11T14:01:15.634Z,5.72
2019-04-11T14:04:03.023Z,5.38
2019-04-11T14:06:36.950Z,5.33
2019-04-11T14:09:30.510Z,5.38
2019-04-11T14:12:05.006Z,5.49
2019-04-11T14:14:41.953Z,5.44
2019-04-11T14:17:29.615Z,5.50
2019-04-11T14:20:28.542Z,5.34
2019-04-11T14:23:13.791Z,5.44
2019-04-11T14:26:11.285Z,5.50
2019-04-11T14:28:46.490Z,5.48
2019-04-11T14:31:33.149Z,5.50
2019-04-11T14:34:23.679Z,5.50
2019-04-11T14:37:23.755Z,5.43
2019-04-11T14:40:03.796Z,5.44
2019-04-11T14:42:54.808Z,5.48
2019-04-11T14:45:50.225Z,5.43
2019-04-11T14:48:34.464Z,5.45
2019-04-11T14:51:18.493Z,5.40
2019-04-11T14:54:11.968Z,5.33
2019-04-11T14:56:48.012Z,5.23
2019-04-11T14:59:38.836Z,5.15
2019-04-11T15:02:17.960Z,5.21
2019-04-11T15:05:18.345Z,5.26
2019-04-11T15:07:50.535Z,5.21
2019-04-11T15:10:39.949Z,5.12
2019-04-11T15:13:24.299Z,5.19
2019-04-11T15:16:27.091Z,5.16
2019-04-11T15:19:01.553Z,5.21
2019-04-11T15:21:50.886Z,5.16
2019-04-11T15:24:23.485Z,5.11
2019-04-11T15:27:32.156Z,5.14
2019-04-11T15:30:06.141Z,5.05
2019-04-11T15:32:59.902Z,5.10
2019-04-11T15:35:31.691Z,5.06
2019-04-11T15:38:23.315Z,5.01
2019-04-11T15:40:59.046Z,4.96
2019-04-11T15:43:51.508Z,4.89
2019-04-11T15:46:25.598Z,4.89
2019-04-11T15:49:21.218Z,4.97
2019-04-11T15:52:07.110Z,4.82
2019-04-11T15:54:58.621Z,4.82
2019-04-11T15:57:43.612Z,4.86
2019-04-11T16:00:50.602Z,4.85
2019-04-11T16:03:24.779Z,4.88
2019-04-11T16:06:14.221Z,4.89
2019-04-11T16:08:50.686Z,4.93
2019-04-11T16:11:46.352Z,4.97
2019-04-11T16:14:20.733Z,4.97
2019-04-11T16:17:01.671Z,5.04
2019-04-11T16:19:52.474Z,5.04
2019-04-11T16:22:58.410Z,5.06
2019-04-11T16:25:30.173Z,5.11
2019-04-11T16:28:30.362Z,5.14
2019-04-11T16:31:02.516Z,5.13
2019-04-11T16:33:56.099Z,5.11
2019-04-11T16:36:47.224Z,5.12
2019-04-11T16:39:52.030Z,5.16
2019-04-11T16:42:37.923Z,5.18
2019-04-11T16:45:32.224Z,5.21
2019-04-11T16:48:02.866Z,5.22
2019-04-11T16:50:34.898Z,5.19
2019-04-11T16:53:10.682Z,5.24
2019-04-11T16:55:43.197Z,5.26
2019-04-11T16:58:16.988Z,5.26
2019-04-11T17:00:52.063Z,5.29
2019-04-11T17:03:24.751Z,5.29
2019-04-11T17:06:03.105Z,5.27
2019-04-11T17:08:56.124Z,5.29
2019-04-11T17:11:29.024Z,5.29
2019-04-11T17:14:00.973Z,5.27
2019-04-11T17:16:32.665Z,5.27
2019-04-11T17:19:05.526Z,5.26
2019-04-11T17:21:43.517Z,5.23
2019-04-11T17:24:16.724Z,5.25
2019-04-11T17:26:46.497Z,5.18
2019-04-11T17:29:20.254Z,5.18
2019-04-11T17:31:55.694Z,5.20
2019-04-11T17:34:25.282Z,5.19
2019-04-11T17:36:56.838Z,5.19
2019-04-11T17:39:28.638Z,5.16
2019-04-11T17:42:00.945Z,5.15
2019-04-11T17:44:33.185Z,5.14
2019-04-11T17:47:05.962Z,5.12
2019-04-11T17:49:37.638Z,5.13
2019-04-11T17:52:10.492Z,5.08
2019-04-11T17:54:42.188Z,5.09
2019-04-11T17:57:14.502Z,5.09
2019-04-11T17:59:48.662Z,5.07
2019-04-11T18:02:20.430Z,5.07
2019-04-11T18:04:52.241Z,5.05
2019-04-11T18:07:24.077Z,5.06
2019-04-11T18:09:56.764Z,5.05
2019-04-11T18:12:28.642Z,5.06
2019-04-11T18:15:02.357Z,5.02
2019-04-11T18:17:35.583Z,5.05
2019-04-11T18:20:07.615Z,5.07
2019-04-11T18:22:39.898Z,5.03
2019-04-11T18:25:11.899Z,5.03
2019-04-11T18:27:43.608Z,5.04
2019-04-11T18:30:17.389Z,5.03
2019-04-11T18:32:49.722Z,5.01
2019-04-11T18:35:21.683Z,4.99
2019-04-11T18:37:53.662Z,4.95
2019-04-11T18:40:25.502Z,4.94
2019-04-11T18:42:58.449Z,4.92
2019-04-11T18:45:30.341Z,4.91
2019-04-11T18:48:02.194Z,4.90
2019-04-11T18:50:34.657Z,4.88
2019-04-11T18:53:06.431Z,4.82
2019-04-11T18:55:38.434Z,4.80
2019-04-11T18:58:10.558Z,4.79
2019-04-11T19:00:42.742Z,4.77
2019-04-11T19:03:14.788Z,4.78
2019-04-11T19:05:46.366Z,4.78
2019-04-11T19:08:18.329Z,4.77
2019-04-11T19:10:52.179Z,4.76
2019-04-11T19:13:23.997Z,4.75
2019-04-11T19:15:56.039Z,4.76
2019-04-11T19:18:28.010Z,4.76
2019-04-11T19:21:00.482Z,4.78
2019-04-11T19:23:32.457Z,4.77
2019-04-11T19:26:04.286Z,4.76
2019-04-11T19:28:36.220Z,4.72
2019-04-11T19:31:12.176Z,4.71
2019-04-11T19:33:44.349Z,4.66
2019-04-11T19:36:16.031Z,4.64
2019-04-11T19:38:47.978Z,4.65
2019-04-11T19:41:19.770Z,4.63
2019-04-11T19:43:51.550Z,4.63
2019-04-11T19:46:23.392Z,4.65
2019-04-11T19:48:59.056Z,4.64
2019-04-11T19:51:29.536Z,4.63
2019-04-11T19:54:03.300Z,4.67
2019-04-11T19:56:42.783Z,4.67
2019-04-11T19:59:14.331Z,4.69
2019-04-11T20:01:45.994Z,4.72
2019-04-11T20:04:21.733Z,4.71
2019-04-11T20:06:53.904Z,4.67
2019-04-11T20:09:25.639Z,4.68
2019-04-11T20:11:57.956Z,4.73
2019-04-11T20:14:34.041Z,4.76
2019-04-11T20:17:04.179Z,4.74
2019-04-11T20:19:35.860Z,4.73
2019-04-11T20:22:09.206Z,4.64
2019-04-11T20:24:45.927Z,4.62
2019-04-11T20:27:15.012Z,4.56
2019-04-11T20:29:50.978Z,4.59
2019-04-11T20:32:22.013Z,4.55
2019-04-11T20:34:53.990Z,4.55
2019-04-11T20:37:25.646Z,4.52
2019-04-11T20:39:57.994Z,4.52
2019-04-11T20:42:29.749Z,4.42
2019-04-11T20:45:02.006Z,4.50
2019-04-11T20:47:35.622Z,4.51
2019-04-11T20:50:09.018Z,4.50
2019-04-11T20:52:40.932Z,4.45
2019-04-11T20:55:13.112Z,4.38
2019-04-11T20:57:45.316Z,4.21
2019-04-11T21:00:18.240Z,4.24
2019-04-11T21:02:50.180Z,4.21
2019-04-11T21:05:22.080Z,4.19
2019-04-11T21:07:53.914Z,4.21
2019-04-11T21:10:25.813Z,4.25
2019-04-11T21:12:57.860Z,4.22
2019-04-11T21:15:29.784Z,4.23
2019-04-11T21:18:02.214Z,4.25
2019-04-11T21:20:35.092Z,4.26
2019-04-11T21:23:07.152Z,4.31
2019-04-11T21:25:38.789Z,4.31
2019-04-11T21:28:10.419Z,4.32
2019-04-11T21:30:42.292Z,4.33
2019-04-11T21:33:14.279Z,4.36
2019-04-11T21:35:46.270Z,4.38
2019-04-11T21:38:18.134Z,4.41
2019-04-11T21:40:51.425Z,4.40
2019-04-11T21:43:23.659Z,4.45
2019-04-11T21:45:55.805Z,4.48
2019-04-11T21:48:29.633Z,4.51
2019-04-11T21:51:01.432Z,4.48
2019-04-11T21:53:36.818Z,4.34
2019-04-11T21:56:06.760Z,4.43
2019-04-11T21:58:38.861Z,4.49
2019-04-11T22:01:14.084Z,4.54
2019-04-11T22:03:47.474Z,4.54
2019-04-11T22:06:21.247Z,4.56
2019-04-11T22:08:53.136Z,4.61
2019-04-11T22:11:24.831Z,4.63
2019-04-11T22:13:56.451Z,4.64
2019-04-11T22:16:28.014Z,4.72
2019-04-11T22:19:00.066Z,4.77
2019-04-11T22:21:32.023Z,4.81
2019-04-11T22:24:03.837Z,4.83
2019-04-11T22:26:36.451Z,4.82
2019-04-11T22:29:08.103Z,4.82
2019-04-11T22:31:40.223Z,4.82
2019-04-11T22:34:22.363Z,4.72
2019-04-11T22:36:54.286Z,4.72
